
Distance (Route):
Temperature : -22.9°C
Humidity : 87.4%
Pressure : 0hPa| Receiver | Frames | First received | Last received |
|---|---|---|---|
| LY3OO-11 | 276 | 2026-08-30 11:32:46 | 2026-08-30 13:28:31 |
| Receiver | Date | Latitude | Longitude | Direction | Speed | Altitude | Climb | Temperature | Humidity | Pressure | Voltage | Killtimer | Uptime | BKT | XDATA |
|---|---|---|---|---|---|---|---|---|---|---|---|---|---|---|---|
| LY3OO-11 | 2026-08-30 13:28:31 | -12.03380 | -77.03945 | 0° | 0km/h | 875m | 0.0m/s | -22.9°C | 87.4% | 0hPa | 0V | 00:00:00 | 00:00:00 | 00:00:00 | |
| LY3OO-11 | 2026-08-30 13:27:55 | -12.03380 | -77.03945 | 0° | 0km/h | 875m | 0.0m/s | -28.6°C | 84.4% | 0hPa | 0V | 00:00:00 | 00:00:00 | 00:00:00 | |
| LY3OO-11 | 2026-08-30 13:27:33 | -12.03380 | -77.03945 | 0° | 0km/h | 875m | 0.0m/s | -32.4°C | 82.2% | 0hPa | 0V | 00:00:00 | 00:00:00 | 00:00:00 | |
| LY3OO-11 | 2026-08-30 13:27:12 | -12.03380 | -77.03945 | 0° | 0km/h | 875m | 0.0m/s | -35.7°C | 72.7% | 0hPa | 0V | 00:00:00 | 00:00:00 | 00:00:00 | |
| LY3OO-11 | 2026-08-30 13:26:52 | -12.03380 | -77.03945 | 0° | 0km/h | 875m | 0.0m/s | -39.6°C | 70.9% | 0hPa | 0V | 00:00:00 | 00:00:00 | 00:00:00 | |
| LY3OO-11 | 2026-08-30 13:26:27 | -12.03380 | -77.03945 | 0° | 0km/h | 875m | 0.0m/s | -44.3°C | 65.2% | 0hPa | 0V | 00:00:00 | 00:00:00 | 00:00:00 | |
| LY3OO-11 | 2026-08-30 13:26:07 | -12.03380 | -77.03945 | 0° | 0km/h | 875m | 0.0m/s | -47.5°C | 63.6% | 0hPa | 0V | 00:00:00 | 00:00:00 | 00:00:00 | |
| LY3OO-11 | 2026-08-30 13:25:45 | -12.03380 | -77.03945 | 0° | 0km/h | 875m | 0.0m/s | -50.9°C | 41.7% | 0hPa | 0V | 00:00:00 | 00:00:00 | 00:00:00 | |
| LY3OO-11 | 2026-08-30 13:25:24 | -12.03380 | -77.03945 | 0° | 0km/h | 875m | 0.0m/s | -54.1°C | 45.8% | 0hPa | 0V | 00:00:00 | 00:00:00 | 00:00:00 | |
| LY3OO-11 | 2026-08-30 13:25:04 | -12.03380 | -77.03945 | 0° | 0km/h | 875m | 0.0m/s | -55.9°C | 33.5% | 0hPa | 0V | 00:00:00 | 00:00:00 | 00:00:00 | |
| LY3OO-11 | 2026-08-30 13:24:43 | -12.03380 | -77.03945 | 0° | 0km/h | 875m | 0.0m/s | -57.2°C | 21.6% | 0hPa | 0V | 00:00:00 | 00:00:00 | 00:00:00 | |
| LY3OO-11 | 2026-08-30 13:24:23 | -12.03380 | -77.03945 | 0° | 0km/h | 875m | 0.0m/s | -53.0°C | 7.8% | 0hPa | 0V | 00:00:00 | 00:00:00 | 00:00:00 | |
| LY3OO-11 | 2026-08-30 13:24:02 | -12.03380 | -77.03945 | 0° | 0km/h | 875m | 0.0m/s | -51.9°C | 6.0% | 0hPa | 0V | 00:00:00 | 00:00:00 | 00:00:00 | |
| LY3OO-11 | 2026-08-30 13:23:41 | -12.03380 | -77.03945 | 0° | 0km/h | 875m | 0.0m/s | -50.5°C | 4.1% | 0hPa | 0V | 00:00:00 | 00:00:00 | 00:00:00 | |
| LY3OO-11 | 2026-08-30 13:23:21 | -12.03380 | -77.03945 | 0° | 0km/h | 875m | 0.0m/s | -50.7°C | 3.6% | 0hPa | 0V | 00:00:00 | 00:00:00 | 00:00:00 | |
| LY3OO-11 | 2026-08-30 13:23:01 | -12.03380 | -77.03945 | 0° | 0km/h | 875m | 0.0m/s | -52.4°C | 4.0% | 0hPa | 0V | 00:00:00 | 00:00:00 | 00:00:00 | |
| LY3OO-11 | 2026-08-30 13:22:41 | -12.03380 | -77.03945 | 0° | 0km/h | 875m | 0.0m/s | -51.9°C | 3.9% | 0hPa | 0V | 00:00:00 | 00:00:00 | 00:00:00 | |
| LY3OO-11 | 2026-08-30 13:22:20 | -12.03380 | -77.03945 | 0° | 0km/h | 875m | 0.0m/s | -51.2°C | 3.6% | 0hPa | 0V | 00:00:00 | 00:00:00 | 00:00:00 | |
| LY3OO-11 | 2026-08-30 13:22:00 | -12.03380 | -77.03945 | 0° | 0km/h | 875m | 0.0m/s | -51.0°C | 3.7% | 0hPa | 0V | 00:00:00 | 00:00:00 | 00:00:00 | |
| LY3OO-11 | 2026-08-30 13:21:39 | -12.03380 | -77.03945 | 0° | 0km/h | 875m | 0.0m/s | -50.0°C | 3.3% | 0hPa | 0V | 00:00:00 | 00:00:00 | 00:00:00 | |
| LY3OO-11 | 2026-08-30 13:21:19 | -12.03380 | -77.03945 | 0° | 0km/h | 875m | 0.0m/s | -51.0°C | 3.5% | 0hPa | 0V | 00:00:00 | 00:00:00 | 00:00:00 | |
| LY3OO-11 | 2026-08-30 13:20:59 | -12.03380 | -77.03945 | 0° | 0km/h | 875m | 0.0m/s | -52.0°C | 3.7% | 0hPa | 0V | 00:00:00 | 00:00:00 | 00:00:00 | |
| LY3OO-11 | 2026-08-30 13:20:38 | -12.03380 | -77.03945 | 0° | 0km/h | 875m | 0.0m/s | -52.6°C | 3.8% | 0hPa | 0V | 00:00:00 | 00:00:00 | 00:00:00 | |
| LY3OO-11 | 2026-08-30 13:20:17 | -12.03380 | -77.03945 | 0° | 0km/h | 875m | 0.0m/s | -53.0°C | 3.9% | 0hPa | 0V | 00:00:00 | 00:00:00 | 00:00:00 | |
| LY3OO-11 | 2026-08-30 13:19:56 | -12.03380 | -77.03945 | 0° | 0km/h | 875m | 0.0m/s | -53.4°C | 4.0% | 0hPa | 0V | 00:00:00 | 00:00:00 | 00:00:00 | |
| LY3OO-11 | 2026-08-30 13:18:18 | -12.04370 | -77.05766 | 331° | 201km/h | 993m | -1.5m/s | -53.4°C | 4.2% | 0hPa | 0V | 00:00:00 | 00:00:00 | 00:00:00 | |
| LY3OO-11 | 2026-08-30 13:17:54 | -12.04802 | -77.04710 | 255° | 199km/h | 996m | 0.3m/s | -52.1°C | 4.1% | 0hPa | 0V | 00:00:00 | 00:00:00 | 00:00:00 | |
| LY3OO-11 | 2026-08-30 13:17:34 | -12.04090 | -77.04056 | 191° | 199km/h | 995m | -0.0m/s | -51.0°C | 4.2% | 0hPa | 0V | 00:00:00 | 00:00:00 | 00:00:00 | |
| LY3OO-11 | 2026-08-30 13:17:14 | -12.03199 | -77.04420 | 126° | 201km/h | 992m | 0.3m/s | -48.2°C | 3.6% | 0hPa | 0V | 00:00:00 | 00:00:00 | 00:00:00 | |
| LY3OO-11 | 2026-08-30 13:16:53 | -12.03160 | -77.05440 | 60° | 199km/h | 995m | 0.8m/s | -47.3°C | 3.7% | 0hPa | 0V | 00:00:00 | 00:00:00 | 00:00:00 | |
| LY3OO-11 | 2026-08-30 13:16:32 | -12.04071 | -77.05867 | 352° | 199km/h | 997m | 0.7m/s | -41.6°C | 2.6% | 0hPa | 0V | 00:00:00 | 00:00:00 | 00:00:00 | |
| LY3OO-11 | 2026-08-30 13:15:47 | -12.04340 | -77.04136 | 208° | 199km/h | 993m | 0.6m/s | -34.2°C | 1.7% | 0hPa | 0V | 00:00:00 | 00:00:00 | 00:00:00 | |
| LY3OO-11 | 2026-08-30 13:15:26 | -12.03342 | -77.04262 | 140° | 199km/h | 997m | -0.4m/s | -35.8°C | 2.0% | 0hPa | 0V | 00:00:00 | 00:00:00 | 00:00:00 | |
| LY3OO-11 | 2026-08-30 13:15:05 | -12.03073 | -77.05244 | 73° | 199km/h | 994m | 0.4m/s | -36.0°C | 2.0% | 0hPa | 0V | 00:00:00 | 00:00:00 | 00:00:00 | |
| LY3OO-11 | 2026-08-30 13:14:45 | -12.03811 | -77.05870 | 9° | 199km/h | 995m | -0.4m/s | -35.6°C | 2.0% | 0hPa | 0V | 00:00:00 | 00:00:00 | 00:00:00 | |
| LY3OO-11 | 2026-08-30 13:14:24 | -12.04717 | -77.05424 | 300° | 203km/h | 995m | 0.1m/s | -36.0°C | 2.0% | 0hPa | 0V | 00:00:00 | 00:00:00 | 00:00:00 | |
| LY3OO-11 | 2026-08-30 13:13:23 | -12.03672 | -77.06056 | 0° | 0km/h | 960m | 0.0m/s | -35.7°C | 2.0% | 0hPa | 0V | 00:00:00 | 00:00:00 | 00:00:00 | |
| LY3OO-11 | 2026-08-30 13:13:02 | -12.03672 | -77.06056 | 0° | 0km/h | 960m | 0.0m/s | -36.2°C | 2.0% | 0hPa | 0V | 00:00:00 | 00:00:00 | 00:00:00 | |
| LY3OO-11 | 2026-08-30 13:12:42 | -12.03672 | -77.06056 | 0° | 0km/h | 960m | 0.0m/s | -37.4°C | 2.1% | 0hPa | 0V | 00:00:00 | 00:00:00 | 00:00:00 | |
| LY3OO-11 | 2026-08-30 13:12:22 | -12.03672 | -77.06056 | 0° | 0km/h | 960m | 0.0m/s | -38.0°C | 2.2% | 0hPa | 0V | 00:00:00 | 00:00:00 | 00:00:00 | |
| LY3OO-11 | 2026-08-30 13:12:01 | -12.03672 | -77.06056 | 0° | 0km/h | 960m | 0.0m/s | -39.2°C | 2.3% | 0hPa | 0V | 00:00:00 | 00:00:00 | 00:00:00 | |
| LY3OO-11 | 2026-08-30 13:11:41 | -12.03672 | -77.06056 | 0° | 0km/h | 960m | 0.0m/s | -39.0°C | 2.3% | 0hPa | 0V | 00:00:00 | 00:00:00 | 00:00:00 | |
| LY3OO-11 | 2026-08-30 13:11:19 | -12.03672 | -77.06056 | 0° | 0km/h | 960m | 0.0m/s | -39.9°C | 2.3% | 0hPa | 0V | 00:00:00 | 00:00:00 | 00:00:00 | |
| LY3OO-11 | 2026-08-30 13:10:58 | -12.03672 | -77.06056 | 0° | 0km/h | 960m | 0.0m/s | -40.5°C | 2.4% | 0hPa | 0V | 00:00:00 | 00:00:00 | 00:00:00 | |
| LY3OO-11 | 2026-08-30 13:10:38 | -12.03672 | -77.06056 | 0° | 0km/h | 960m | 0.0m/s | -40.9°C | 2.4% | 0hPa | 0V | 00:00:00 | 00:00:00 | 00:00:00 | |
| LY3OO-11 | 2026-08-30 13:10:17 | -12.03672 | -77.06056 | 0° | 0km/h | 960m | 0.0m/s | -41.5°C | 2.5% | 0hPa | 0V | 00:00:00 | 00:00:00 | 00:00:00 | |
| LY3OO-11 | 2026-08-30 13:09:51 | -12.03672 | -77.06056 | 0° | 0km/h | 960m | 0.0m/s | -42.4°C | 2.7% | 0hPa | 0V | 00:00:00 | 00:00:00 | 00:00:00 | |
| LY3OO-11 | 2026-08-30 13:09:31 | -12.04431 | -77.05722 | 327° | 199km/h | 987m | -0.4m/s | -42.1°C | 2.6% | 0hPa | 0V | 00:00:00 | 00:00:00 | 00:00:00 | |
| LY3OO-11 | 2026-08-30 13:09:05 | -12.04743 | -77.04541 | 244° | 199km/h | 985m | 0.2m/s | -42.9°C | 2.7% | 0hPa | 0V | 00:00:00 | 00:00:00 | 00:00:00 | |
| LY3OO-11 | 2026-08-30 13:08:44 | -12.03869 | -77.04034 | 177° | 199km/h | 987m | 0.5m/s | -42.6°C | 2.6% | 0hPa | 0V | 00:00:00 | 00:00:00 | 00:00:00 | |
| LY3OO-11 | 2026-08-30 13:08:20 | -12.03040 | -77.04811 | 99° | 195km/h | 985m | -1.7m/s | -42.5°C | 2.6% | 0hPa | 0V | 00:00:00 | 00:00:00 | 00:00:00 | |
| LY3OO-11 | 2026-08-30 13:07:59 | -12.03462 | -77.05736 | 33° | 199km/h | 986m | 0.2m/s | -43.2°C | 2.7% | 0hPa | 0V | 00:00:00 | 00:00:00 | 00:00:00 | |
| LY3OO-11 | 2026-08-30 13:07:39 | -12.04425 | -77.05730 | 328° | 199km/h | 987m | -0.3m/s | -43.7°C | 2.8% | 0hPa | 0V | 00:00:00 | 00:00:00 | 00:00:00 | |
| LY3OO-11 | 2026-08-30 13:07:18 | -12.04828 | -77.04794 | 261° | 197km/h | 985m | 0.5m/s | -44.1°C | 2.7% | 0hPa | 0V | 00:00:00 | 00:00:00 | 00:00:00 | |
| LY3OO-11 | 2026-08-30 13:06:57 | -12.04134 | -77.04057 | 192° | 199km/h | 985m | 0.7m/s | -44.1°C | 2.8% | 0hPa | 0V | 00:00:00 | 00:00:00 | 00:00:00 | |
| LY3OO-11 | 2026-08-30 13:06:13 | -12.04891 | -77.04210 | 0° | 0km/h | 1038m | 0.0m/s | -43.3°C | 2.8% | 0hPa | 0V | 00:00:00 | 00:00:00 | 00:00:00 | |
| LY3OO-11 | 2026-08-30 13:05:51 | -12.04891 | -77.04210 | 0° | 0km/h | 1038m | 0.0m/s | -43.0°C | 2.7% | 0hPa | 0V | 00:00:00 | 00:00:00 | 00:00:00 | |
| LY3OO-11 | 2026-08-30 13:05:31 | -12.04891 | -77.04210 | 0° | 0km/h | 1038m | 0.0m/s | -42.7°C | 2.6% | 0hPa | 0V | 00:00:00 | 00:00:00 | 00:00:00 | |
| LY3OO-11 | 2026-08-30 13:05:10 | -12.04891 | -77.04210 | 0° | 0km/h | 1038m | 0.0m/s | -43.0°C | 2.7% | 0hPa | 0V | 00:00:00 | 00:00:00 | 00:00:00 | |
| LY3OO-11 | 2026-08-30 13:04:49 | -12.04891 | -77.04210 | 0° | 0km/h | 1038m | 0.0m/s | -43.1°C | 2.7% | 0hPa | 0V | 00:00:00 | 00:00:00 | 00:00:00 | |
| LY3OO-11 | 2026-08-30 13:04:29 | -12.04891 | -77.04210 | 0° | 0km/h | 1038m | 0.0m/s | -42.9°C | 2.5% | 0hPa | 0V | 00:00:00 | 00:00:00 | 00:00:00 | |
| LY3OO-11 | 2026-08-30 13:04:08 | -12.04729 | -77.04179 | 191° | 215km/h | 1024m | 4.6m/s | -44.4°C | 2.7% | 0hPa | 0V | 00:00:00 | 00:00:00 | 00:00:00 | |
| LY3OO-11 | 2026-08-30 13:03:47 | -12.03644 | -77.04086 | 162° | 199km/h | 988m | 0.3m/s | -45.5°C | 2.9% | 0hPa | 0V | 00:00:00 | 00:00:00 | 00:00:00 | |
| LY3OO-11 | 2026-08-30 13:03:26 | -12.03033 | -77.04893 | 95° | 199km/h | 987m | 0.2m/s | -45.2°C | 2.9% | 0hPa | 0V | 00:00:00 | 00:00:00 | 00:00:00 | |
| LY3OO-11 | 2026-08-30 13:03:06 | -12.03488 | -77.05753 | 30° | 199km/h | 988m | 0.3m/s | -45.4°C | 2.9% | 0hPa | 0V | 00:00:00 | 00:00:00 | 00:00:00 | |
| LY3OO-11 | 2026-08-30 13:02:46 | -12.04448 | -77.05712 | 326° | 199km/h | 989m | -0.6m/s | -46.0°C | 3.0% | 0hPa | 0V | 00:00:00 | 00:00:00 | 00:00:00 | |
| LY3OO-11 | 2026-08-30 13:02:24 | -12.04807 | -77.04716 | 256° | 199km/h | 988m | 1.0m/s | -46.8°C | 3.1% | 0hPa | 0V | 00:00:00 | 00:00:00 | 00:00:00 | |
| LY3OO-11 | 2026-08-30 13:02:03 | -12.04053 | -77.04043 | 189° | 199km/h | 987m | 0.4m/s | -47.2°C | 3.2% | 0hPa | 0V | 00:00:00 | 00:00:00 | 00:00:00 | |
| LY3OO-11 | 2026-08-30 13:01:43 | -12.03180 | -77.04449 | 124° | 199km/h | 986m | 0.8m/s | -46.8°C | 3.2% | 0hPa | 0V | 00:00:00 | 00:00:00 | 00:00:00 | |
| LY3OO-11 | 2026-08-30 13:01:23 | -12.03158 | -77.05427 | 58° | 195km/h | 987m | -0.6m/s | -47.1°C | 3.1% | 0hPa | 0V | 00:00:00 | 00:00:00 | 00:00:00 | |
| LY3OO-11 | 2026-08-30 13:01:02 | -12.04064 | -77.05864 | 353° | 199km/h | 987m | 0.3m/s | -48.3°C | 3.3% | 0hPa | 0V | 00:00:00 | 00:00:00 | 00:00:00 | |
| LY3OO-11 | 2026-08-30 13:00:41 | -12.04811 | -77.05183 | 285° | 199km/h | 987m | -0.6m/s | -48.8°C | 3.2% | 0hPa | 0V | 00:00:00 | 00:00:00 | 00:00:00 | |
| LY3OO-11 | 2026-08-30 13:00:20 | -12.04479 | -77.04222 | 218° | 199km/h | 985m | 0.1m/s | -50.1°C | 3.6% | 0hPa | 0V | 00:00:00 | 00:00:00 | 00:00:00 | |
| LY3OO-11 | 2026-08-30 12:59:59 | -12.03477 | -77.04162 | 151° | 197km/h | 987m | -1.5m/s | -50.2°C | 3.7% | 0hPa | 0V | 00:00:00 | 00:00:00 | 00:00:00 | |
| LY3OO-11 | 2026-08-30 12:59:38 | -12.03040 | -77.05079 | 84° | 199km/h | 987m | 0.1m/s | -50.4°C | 3.7% | 0hPa | 0V | 00:00:00 | 00:00:00 | 00:00:00 | |
| LY3OO-11 | 2026-08-30 12:59:18 | -12.03654 | -77.05829 | 19° | 199km/h | 988m | 0.0m/s | -50.0°C | 3.7% | 0hPa | 0V | 00:00:00 | 00:00:00 | 00:00:00 | |
| LY3OO-11 | 2026-08-30 12:58:57 | -12.04621 | -77.05556 | 312° | 199km/h | 986m | -0.2m/s | -49.3°C | 3.5% | 0hPa | 0V | 00:00:00 | 00:00:00 | 00:00:00 | |
| LY3OO-11 | 2026-08-30 12:58:37 | -12.04764 | -77.04590 | 248° | 199km/h | 988m | 0.5m/s | -49.5°C | 3.5% | 0hPa | 0V | 00:00:00 | 00:00:00 | 00:00:00 | |
| LY3OO-11 | 2026-08-30 12:58:16 | -12.03921 | -77.04039 | 180° | 199km/h | 989m | -0.2m/s | -49.1°C | 3.5% | 0hPa | 0V | 00:00:00 | 00:00:00 | 00:00:00 | |
| LY3OO-11 | 2026-08-30 12:57:55 | -12.03096 | -77.04614 | 113° | 199km/h | 989m | 0.3m/s | -48.9°C | 3.4% | 0hPa | 0V | 00:00:00 | 00:00:00 | 00:00:00 | |
| LY3OO-11 | 2026-08-30 12:57:15 | -12.04204 | -77.05833 | 0° | 0km/h | 992m | 0.0m/s | -49.1°C | 3.4% | 0hPa | 0V | 00:00:00 | 00:00:00 | 00:00:00 | |
| LY3OO-11 | 2026-08-30 12:56:54 | -12.03687 | -77.05971 | 0° | 0km/h | 1009m | 0.0m/s | -49.6°C | 3.5% | 0hPa | 0V | 00:00:00 | 00:00:00 | 00:00:00 | |
| LY3OO-11 | 2026-08-30 12:56:33 | -12.03687 | -77.05971 | 0° | 0km/h | 1009m | 0.0m/s | -49.4°C | 3.5% | 0hPa | 0V | 00:00:00 | 00:00:00 | 00:00:00 | |
| LY3OO-11 | 2026-08-30 12:56:13 | -12.03687 | -77.05971 | 0° | 0km/h | 1009m | 0.0m/s | -49.4°C | 3.4% | 0hPa | 0V | 00:00:00 | 00:00:00 | 00:00:00 | |
| LY3OO-11 | 2026-08-30 12:55:53 | -12.04473 | -77.05695 | 325° | 195km/h | 989m | 0.5m/s | -49.9°C | 3.4% | 0hPa | 0V | 00:00:00 | 00:00:00 | 00:00:00 | |
| LY3OO-11 | 2026-08-30 12:55:32 | -12.04823 | -77.04787 | 261° | 199km/h | 991m | 0.4m/s | -50.5°C | 3.6% | 0hPa | 0V | 00:00:00 | 00:00:00 | 00:00:00 | |
| LY3OO-11 | 2026-08-30 12:55:12 | -12.04171 | -77.04070 | 196° | 199km/h | 990m | -0.2m/s | -50.6°C | 3.6% | 0hPa | 0V | 00:00:00 | 00:00:00 | 00:00:00 | |
| LY3OO-11 | 2026-08-30 12:54:51 | -12.03220 | -77.04394 | 129° | 199km/h | 988m | -0.7m/s | -50.9°C | 3.7% | 0hPa | 0V | 00:00:00 | 00:00:00 | 00:00:00 | |
| LY3OO-11 | 2026-08-30 12:54:30 | -12.03147 | -77.05410 | 61° | 199km/h | 986m | 2.1m/s | -50.8°C | 3.6% | 0hPa | 0V | 00:00:00 | 00:00:00 | 00:00:00 | |
| LY3OO-11 | 2026-08-30 12:54:09 | -12.04044 | -77.05869 | 354° | 199km/h | 989m | -0.3m/s | -51.2°C | 3.8% | 0hPa | 0V | 00:00:00 | 00:00:00 | 00:00:00 | |
| LY3OO-11 | 2026-08-30 12:53:49 | -12.04790 | -77.05253 | 290° | 199km/h | 990m | 0.1m/s | -51.8°C | 3.8% | 0hPa | 0V | 00:00:00 | 00:00:00 | 00:00:00 | |
| LY3OO-11 | 2026-08-30 12:53:28 | -12.04496 | -77.04236 | 219° | 199km/h | 988m | 1.0m/s | -51.8°C | 3.9% | 0hPa | 0V | 00:00:00 | 00:00:00 | 00:00:00 | |
| LY3OO-11 | 2026-08-30 12:53:08 | -12.03540 | -77.04131 | 155° | 199km/h | 989m | 0.4m/s | -51.9°C | 3.8% | 0hPa | 0V | 00:00:00 | 00:00:00 | 00:00:00 | |
| LY3OO-11 | 2026-08-30 12:52:47 | -12.03031 | -77.04957 | 91° | 199km/h | 989m | 0.2m/s | -52.0°C | 3.9% | 0hPa | 0V | 00:00:00 | 00:00:00 | 00:00:00 | |
| LY3OO-11 | 2026-08-30 12:52:28 | -12.03541 | -77.05784 | 27° | 197km/h | 990m | -0.9m/s | -51.6°C | 3.7% | 0hPa | 0V | 00:00:00 | 00:00:00 | 00:00:00 | |
| LY3OO-11 | 2026-08-30 12:52:07 | -12.04535 | -77.05644 | 320° | 199km/h | 991m | 0.0m/s | -51.8°C | 3.8% | 0hPa | 0V | 00:00:00 | 00:00:00 | 00:00:00 | |
| LY3OO-11 | 2026-08-30 12:51:45 | -12.04789 | -77.04659 | 252° | 199km/h | 991m | -0.5m/s | -51.8°C | 3.9% | 0hPa | 0V | 00:00:00 | 00:00:00 | 00:00:00 | |
| LY3OO-11 | 2026-08-30 12:51:25 | -12.04043 | -77.04045 | 188° | 199km/h | 989m | -0.7m/s | -51.7°C | 3.9% | 0hPa | 0V | 00:00:00 | 00:00:00 | 00:00:00 | |
| LY3OO-11 | 2026-08-30 12:51:04 | -12.03148 | -77.04503 | 120° | 201km/h | 990m | -0.4m/s | -51.3°C | 3.6% | 0hPa | 0V | 00:00:00 | 00:00:00 | 00:00:00 | |
| LY3OO-11 | 2026-08-30 12:50:44 | -12.03191 | -77.05478 | 56° | 199km/h | 988m | 0.1m/s | -51.7°C | 3.6% | 0hPa | 0V | 00:00:00 | 00:00:00 | 00:00:00 | |
| LY3OO-11 | 2026-08-30 12:50:22 | -12.04172 | -77.05842 | 346° | 199km/h | 988m | 0.1m/s | -52.4°C | 3.9% | 0hPa | 0V | 00:00:00 | 00:00:00 | 00:00:00 | |
| LY3OO-11 | 2026-08-30 12:50:00 | -12.04836 | -77.05022 | 275° | 199km/h | 987m | -0.3m/s | -53.1°C | 4.0% | 0hPa | 0V | 00:00:00 | 00:00:00 | 00:00:00 | |
| LY3OO-11 | 2026-08-30 12:49:40 | -12.04386 | -77.04160 | 211° | 199km/h | 988m | -0.3m/s | -53.0°C | 4.1% | 0hPa | 0V | 00:00:00 | 00:00:00 | 00:00:00 | |
| LY3OO-11 | 2026-08-30 12:49:19 | -12.03386 | -77.04226 | 144° | 199km/h | 988m | -0.1m/s | -52.9°C | 3.9% | 0hPa | 0V | 00:00:00 | 00:00:00 | 00:00:00 | |
| LY3OO-11 | 2026-08-30 12:48:59 | -12.03050 | -77.05139 | 79° | 199km/h | 989m | -0.2m/s | -52.8°C | 4.0% | 0hPa | 0V | 00:00:00 | 00:00:00 | 00:00:00 | |
| LY3OO-11 | 2026-08-30 12:48:38 | -12.03761 | -77.05856 | 12° | 199km/h | 986m | -0.0m/s | -53.1°C | 4.1% | 0hPa | 0V | 00:00:00 | 00:00:00 | 00:00:00 | |
| LY3OO-11 | 2026-08-30 12:48:17 | -12.04687 | -77.05463 | 305° | 199km/h | 988m | 0.5m/s | -52.8°C | 3.9% | 0hPa | 0V | 00:00:00 | 00:00:00 | 00:00:00 | |
| LY3OO-11 | 2026-08-30 12:47:56 | -12.04687 | -77.04445 | 237° | 199km/h | 990m | -0.0m/s | -53.1°C | 4.0% | 0hPa | 0V | 00:00:00 | 00:00:00 | 00:00:00 | |
| LY3OO-11 | 2026-08-30 12:47:34 | -12.03712 | -77.04066 | 167° | 199km/h | 991m | 0.2m/s | -53.5°C | 4.1% | 0hPa | 0V | 00:00:00 | 00:00:00 | 00:00:00 | |
| LY3OO-11 | 2026-08-30 12:47:13 | -12.03041 | -77.04822 | 99° | 199km/h | 990m | 0.5m/s | -53.6°C | 4.1% | 0hPa | 0V | 00:00:00 | 00:00:00 | 00:00:00 | |
| LY3OO-11 | 2026-08-30 12:46:52 | -12.03470 | -77.05742 | 32° | 199km/h | 989m | 0.0m/s | -53.6°C | 4.1% | 0hPa | 0V | 00:00:00 | 00:00:00 | 00:00:00 | |
| LY3OO-11 | 2026-08-30 12:46:32 | -12.04431 | -77.05722 | 328° | 199km/h | 991m | -0.1m/s | -52.8°C | 4.0% | 0hPa | 0V | 00:00:00 | 00:00:00 | 00:00:00 | |
| LY3OO-11 | 2026-08-30 12:46:13 | -12.04830 | -77.04836 | 263° | 199km/h | 989m | 0.3m/s | -52.9°C | 3.9% | 0hPa | 0V | 00:00:00 | 00:00:00 | 00:00:00 | |
| LY3OO-11 | 2026-08-30 12:45:51 | -12.04171 | -77.04068 | 196° | 197km/h | 988m | 0.1m/s | -52.8°C | 4.0% | 0hPa | 0V | 00:00:00 | 00:00:00 | 00:00:00 | |
| LY3OO-11 | 2026-08-30 12:45:30 | -12.03221 | -77.04392 | 129° | 199km/h | 990m | 0.2m/s | -53.3°C | 4.1% | 0hPa | 0V | 00:00:00 | 00:00:00 | 00:00:00 | |
| LY3OO-11 | 2026-08-30 12:45:09 | -12.04203 | -77.05845 | 0° | 0km/h | 987m | 0.0m/s | -53.3°C | 4.1% | 0hPa | 0V | 00:00:00 | 00:00:00 | 00:00:00 | |
| LY3OO-11 | 2026-08-30 12:44:48 | -12.04203 | -77.05845 | 0° | 0km/h | 987m | 0.0m/s | -53.1°C | 4.0% | 0hPa | 0V | 00:00:00 | 00:00:00 | 00:00:00 | |
| LY3OO-11 | 2026-08-30 12:44:27 | -12.03661 | -77.06107 | 0° | 0km/h | 964m | 0.0m/s | -53.1°C | 4.0% | 0hPa | 0V | 00:00:00 | 00:00:00 | 00:00:00 | |
| LY3OO-11 | 2026-08-30 12:44:05 | -12.03661 | -77.06107 | 0° | 0km/h | 964m | 0.0m/s | -53.4°C | 4.0% | 0hPa | 0V | 00:00:00 | 00:00:00 | 00:00:00 | |
| LY3OO-11 | 2026-08-30 12:43:44 | -12.03661 | -77.06107 | 0° | 0km/h | 964m | 0.0m/s | -53.9°C | 4.2% | 0hPa | 0V | 00:00:00 | 00:00:00 | 00:00:00 | |
| LY3OO-11 | 2026-08-30 12:43:23 | -12.04431 | -77.05725 | 328° | 199km/h | 989m | 0.9m/s | -54.0°C | 4.1% | 0hPa | 0V | 00:00:00 | 00:00:00 | 00:00:00 | |
| LY3OO-11 | 2026-08-30 12:43:03 | -12.04824 | -77.04787 | 261° | 199km/h | 988m | -1.0m/s | -54.2°C | 4.2% | 0hPa | 0V | 00:00:00 | 00:00:00 | 00:00:00 | |
| LY3OO-11 | 2026-08-30 12:42:41 | -12.04123 | -77.04059 | 193° | 199km/h | 988m | 0.3m/s | -54.2°C | 4.3% | 0hPa | 0V | 00:00:00 | 00:00:00 | 00:00:00 | |
| LY3OO-11 | 2026-08-30 12:42:20 | -12.03190 | -77.04435 | 126° | 199km/h | 989m | 0.1m/s | -53.7°C | 4.1% | 0hPa | 0V | 00:00:00 | 00:00:00 | 00:00:00 | |
| LY3OO-11 | 2026-08-30 12:41:57 | -12.03235 | -77.05534 | 52° | 199km/h | 985m | -1.3m/s | -53.6°C | 4.1% | 0hPa | 0V | 00:00:00 | 00:00:00 | 00:00:00 | |
| LY3OO-11 | 2026-08-30 12:41:33 | -12.04334 | -77.05782 | 335° | 199km/h | 985m | -0.2m/s | -53.9°C | 4.4% | 0hPa | 0V | 00:00:00 | 00:00:00 | 00:00:00 | |
| LY3OO-11 | 2026-08-30 12:41:09 | 2.70390 | -79.46568 | 0° | 0km/h | 47m | 0.0m/s | -54.4°C | 4.7% | 0hPa | 0V | 00:00:00 | 00:00:00 | 00:00:00 | |
| LY3OO-11 | 2026-08-30 12:40:48 | 2.70390 | -79.46568 | 0° | 0km/h | 47m | 0.0m/s | -53.8°C | 4.5% | 0hPa | 0V | 00:00:00 | 00:00:00 | 00:00:00 | |
| LY3OO-11 | 2026-08-30 12:40:28 | 2.70390 | -79.46568 | 0° | 0km/h | 47m | 0.0m/s | -54.0°C | 4.5% | 0hPa | 0V | 00:00:00 | 00:00:00 | 00:00:00 | |
| LY3OO-11 | 2026-08-30 12:40:08 | 2.70390 | -79.46568 | 0° | 0km/h | 47m | 0.0m/s | -54.1°C | 4.5% | 0hPa | 0V | 00:00:00 | 00:00:00 | 00:00:00 | |
| LY3OO-11 | 2026-08-30 12:39:46 | 2.70390 | -79.46568 | 0° | 0km/h | 47m | 0.0m/s | -54.5°C | 4.6% | 0hPa | 0V | 00:00:00 | 00:00:00 | 00:00:00 | |
| LY3OO-11 | 2026-08-30 12:39:25 | 2.70390 | -79.46568 | 0° | 0km/h | 47m | 0.0m/s | -54.7°C | 4.7% | 0hPa | 0V | 00:00:00 | 00:00:00 | 00:00:00 | |
| LY3OO-11 | 2026-08-30 12:39:03 | 2.70390 | -79.46568 | 0° | 0km/h | 47m | 0.0m/s | -54.9°C | 4.8% | 0hPa | 0V | 00:00:00 | 00:00:00 | 00:00:00 | |
| LY3OO-11 | 2026-08-30 12:36:58 | -13.74116 | -75.40146 | 0° | 0km/h | 15m | 0.0m/s | -53.7°C | 4.4% | 0hPa | 0V | 00:00:00 | 00:00:00 | 00:00:00 | |
| LY3OO-11 | 2026-08-30 12:35:48 | -73.60213 | 89.92840 | 0° | 0km/h | 3076m | 0.0m/s | -54.2°C | 3.6% | 0hPa | 0V | 00:00:00 | 00:00:00 | 00:00:00 | |
| LY3OO-11 | 2026-08-30 12:35:26 | -73.60213 | 89.92840 | 0° | 0km/h | 3076m | 0.0m/s | -54.1°C | 4.1% | 0hPa | 0V | 00:00:00 | 00:00:00 | 00:00:00 | |
| LY3OO-11 | 2026-08-30 12:27:02 | 54.69427 | 31.90428 | 314° | 99km/h | 1173m | -0.5m/s | -51.6°C | 3.7% | 0hPa | 0V | 00:00:00 | 00:00:00 | 00:00:00 | |
| LY3OO-11 | 2026-08-30 12:26:41 | 40.09510 | 87.56191 | 0° | 0km/h | 960m | 0.0m/s | -51.3°C | 3.6% | 0hPa | 0V | 00:00:00 | 00:00:00 | 00:00:00 | |
| LY3OO-11 | 2026-08-30 12:25:37 | 54.70753 | 31.92236 | 0° | 0km/h | 1717m | 0.0m/s | -50.7°C | 3.6% | 0hPa | 0V | 00:00:00 | 00:00:00 | 00:00:00 | |
| LY3OO-11 | 2026-08-30 12:24:16 | 54.70710 | 31.90466 | 49° | 99km/h | 976m | -0.3m/s | -49.8°C | 3.6% | 0hPa | 0V | 00:00:00 | 00:00:00 | 00:00:00 | |
| LY3OO-11 | 2026-08-30 12:23:52 | 54.69193 | 31.90689 | 0° | 0km/h | 980m | 0.0m/s | -49.1°C | 3.4% | 0hPa | 0V | 00:00:00 | 00:00:00 | 00:00:00 | |
| LY3OO-11 | 2026-08-30 12:23:32 | 54.69193 | 31.90689 | 0° | 0km/h | 980m | 0.0m/s | -49.9°C | 3.4% | 0hPa | 0V | 00:00:00 | 00:00:00 | 00:00:00 | |
| LY3OO-11 | 2026-08-30 12:23:10 | 54.69193 | 31.90689 | 0° | 0km/h | 980m | 0.0m/s | -51.3°C | 3.7% | 0hPa | 0V | 00:00:00 | 00:00:00 | 00:00:00 | |
| LY3OO-11 | 2026-08-30 12:22:49 | 54.69141 | 31.91434 | 273° | 99km/h | 998m | -0.1m/s | -51.2°C | 3.8% | 0hPa | 0V | 00:00:00 | 00:00:00 | 00:00:00 | |
| LY3OO-11 | 2026-08-30 12:22:28 | 54.69259 | 31.92290 | 239° | 99km/h | 989m | 0.2m/s | -51.0°C | 3.8% | 0hPa | 0V | 00:00:00 | 00:00:00 | 00:00:00 | |
| LY3OO-11 | 2026-08-30 12:22:07 | 54.69663 | 31.92970 | 0° | 0km/h | 955m | 0.0m/s | -51.1°C | 3.7% | 0hPa | 0V | 00:00:00 | 00:00:00 | 00:00:00 | |
| LY3OO-11 | 2026-08-30 12:21:43 | 54.98112 | 24.39043 | 0° | 0km/h | 15433m | 0.0m/s | -51.3°C | 1.5% | 0hPa | 0V | 00:00:00 | 00:00:00 | 00:00:00 | |
| LY3OO-11 | 2026-08-30 12:21:22 | 54.98112 | 24.39043 | 0° | 0km/h | 15433m | 0.0m/s | -51.5°C | 1.5% | 0hPa | 0V | 00:00:00 | 00:00:00 | 00:00:00 | |
| LY3OO-11 | 2026-08-30 12:21:01 | 54.98112 | 24.39043 | 0° | 0km/h | 15433m | 0.0m/s | -51.8°C | 1.5% | 0hPa | 0V | 00:00:00 | 00:00:00 | 00:00:00 | |
| LY3OO-11 | 2026-08-30 12:20:40 | 54.98066 | 24.38854 | 71° | 37km/h | 15386m | 3.8m/s | -51.6°C | 1.5% | 0hPa | 0V | 00:00:00 | 00:00:00 | 00:00:00 | |
| LY3OO-11 | 2026-08-30 12:20:17 | 54.97999 | 24.38534 | 78° | 33km/h | 15285m | 3.8m/s | -51.4°C | 1.5% | 0hPa | 0V | 00:00:00 | 00:00:00 | 00:00:00 | |
| LY3OO-11 | 2026-08-30 12:19:56 | 54.97969 | 24.38245 | 81° | 33km/h | 15195m | 4.5m/s | -51.6°C | 1.6% | 0hPa | 0V | 00:00:00 | 00:00:00 | 00:00:00 | |
| LY3OO-11 | 2026-08-30 12:19:33 | 54.97935 | 24.37922 | 88° | 27km/h | 15091m | 4.4m/s | -51.4°C | 1.5% | 0hPa | 0V | 00:00:00 | 00:00:00 | 00:00:00 | |
| LY3OO-11 | 2026-08-30 12:19:13 | 54.97910 | 24.37608 | 76° | 35km/h | 15004m | 4.3m/s | -51.1°C | 1.5% | 0hPa | 0V | 00:00:00 | 00:00:00 | 00:00:00 | |
| LY3OO-11 | 2026-08-30 12:18:52 | 54.97873 | 24.37315 | 74° | 35km/h | 14913m | 5.4m/s | -50.8°C | 1.5% | 0hPa | 0V | 00:00:00 | 00:00:00 | 00:00:00 | |
| LY3OO-11 | 2026-08-30 12:18:31 | 54.97849 | 24.37025 | 94° | 35km/h | 14818m | 4.1m/s | -51.1°C | 1.6% | 0hPa | 0V | 00:00:00 | 00:00:00 | 00:00:00 | |
| LY3OO-11 | 2026-08-30 12:18:10 | 54.97830 | 24.36684 | 88° | 47km/h | 14727m | 4.8m/s | -51.4°C | 1.7% | 0hPa | 0V | 00:00:00 | 00:00:00 | 00:00:00 | |
| LY3OO-11 | 2026-08-30 12:17:49 | 54.97817 | 24.36290 | 85° | 44km/h | 14633m | 3.8m/s | -51.6°C | 1.7% | 0hPa | 0V | 00:00:00 | 00:00:00 | 00:00:00 | |
| LY3OO-11 | 2026-08-30 12:17:29 | 54.97777 | 24.35910 | 86° | 46km/h | 14547m | 5.0m/s | -51.5°C | 1.8% | 0hPa | 0V | 00:00:00 | 00:00:00 | 00:00:00 | |
| LY3OO-11 | 2026-08-30 12:17:09 | 54.97757 | 24.35534 | 84° | 46km/h | 14457m | 3.5m/s | -51.4°C | 1.7% | 0hPa | 0V | 00:00:00 | 00:00:00 | 00:00:00 | |
| LY3OO-11 | 2026-08-30 12:16:48 | 54.97726 | 24.35117 | 90° | 51km/h | 14369m | 3.9m/s | -51.4°C | 1.6% | 0hPa | 0V | 00:00:00 | 00:00:00 | 00:00:00 | |
| LY3OO-11 | 2026-08-30 12:16:28 | 54.97712 | 24.34681 | 86° | 49km/h | 14283m | 4.0m/s | -51.0°C | 1.7% | 0hPa | 0V | 00:00:00 | 00:00:00 | 00:00:00 | |
| LY3OO-11 | 2026-08-30 12:16:09 | 54.97676 | 24.34247 | 82° | 51km/h | 14198m | 4.3m/s | -51.5°C | 1.8% | 0hPa | 0V | 00:00:00 | 00:00:00 | 00:00:00 | |
| LY3OO-11 | 2026-08-30 12:15:47 | 54.97621 | 24.33776 | 83° | 57km/h | 14113m | 5.1m/s | -51.4°C | 1.8% | 0hPa | 0V | 00:00:00 | 00:00:00 | 00:00:00 | |
| LY3OO-11 | 2026-08-30 12:15:27 | 54.97569 | 24.33295 | 76° | 53km/h | 14033m | 3.9m/s | -51.2°C | 1.8% | 0hPa | 0V | 00:00:00 | 00:00:00 | 00:00:00 | |
| LY3OO-11 | 2026-08-30 12:15:06 | 54.97538 | 24.32824 | 87° | 60km/h | 13949m | 3.2m/s | -51.8°C | 1.8% | 0hPa | 0V | 00:00:00 | 00:00:00 | 00:00:00 | |
| LY3OO-11 | 2026-08-30 12:14:45 | 54.97514 | 24.32369 | 81° | 46km/h | 13868m | 3.7m/s | -51.8°C | 2.0% | 0hPa | 0V | 00:00:00 | 00:00:00 | 00:00:00 | |
| LY3OO-11 | 2026-08-30 12:14:24 | 54.97471 | 24.31943 | 84° | 47km/h | 13781m | 3.2m/s | -51.4°C | 1.9% | 0hPa | 0V | 00:00:00 | 00:00:00 | 00:00:00 | |
| LY3OO-11 | 2026-08-30 12:14:03 | 54.97416 | 24.31545 | 78° | 44km/h | 13698m | 3.8m/s | -50.9°C | 1.8% | 0hPa | 0V | 00:00:00 | 00:00:00 | 00:00:00 | |
| LY3OO-11 | 2026-08-30 12:13:42 | 54.97410 | 24.31174 | 93° | 42km/h | 13614m | 3.5m/s | -51.3°C | 1.9% | 0hPa | 0V | 00:00:00 | 00:00:00 | 00:00:00 | |
| LY3OO-11 | 2026-08-30 12:13:21 | 54.97395 | 24.30814 | 85° | 38km/h | 13525m | 4.3m/s | -50.8°C | 1.8% | 0hPa | 0V | 00:00:00 | 00:00:00 | 00:00:00 | |
| LY3OO-11 | 2026-08-30 12:13:01 | 54.97359 | 24.30497 | 85° | 38km/h | 13441m | 2.8m/s | -51.1°C | 2.1% | 0hPa | 0V | 00:00:00 | 00:00:00 | 00:00:00 | |
| LY3OO-11 | 2026-08-30 12:12:19 | 54.97290 | 24.29714 | 82° | 44km/h | 13254m | 4.6m/s | -51.1°C | 2.3% | 0hPa | 0V | 00:00:00 | 00:00:00 | 00:00:00 | |
| LY3OO-11 | 2026-08-30 12:11:59 | 54.97258 | 24.29354 | 91° | 44km/h | 13156m | 4.3m/s | -50.4°C | 2.5% | 0hPa | 0V | 00:00:00 | 00:00:00 | 00:00:00 | |
| LY3OO-11 | 2026-08-30 12:11:39 | 54.97259 | 24.28935 | 91° | 49km/h | 13064m | 4.1m/s | -50.2°C | 2.6% | 0hPa | 0V | 00:00:00 | 00:00:00 | 00:00:00 | |
| LY3OO-11 | 2026-08-30 12:11:18 | 54.97252 | 24.28481 | 93° | 55km/h | 12968m | 5.5m/s | -50.8°C | 3.0% | 0hPa | 0V | 00:00:00 | 00:00:00 | 00:00:00 | |
| LY3OO-11 | 2026-08-30 12:10:58 | 54.97254 | 24.28061 | 85° | 49km/h | 12877m | 3.5m/s | -51.5°C | 3.6% | 0hPa | 0V | 00:00:00 | 00:00:00 | 00:00:00 | |
| LY3OO-11 | 2026-08-30 12:10:37 | 54.97228 | 24.27606 | 83° | 46km/h | 12784m | 3.5m/s | -51.2°C | 3.5% | 0hPa | 0V | 00:00:00 | 00:00:00 | 00:00:00 | |
| LY3OO-11 | 2026-08-30 12:10:16 | 54.97197 | 24.27179 | 87° | 46km/h | 12693m | 3.3m/s | -50.6°C | 3.7% | 0hPa | 0V | 00:00:00 | 00:00:00 | 00:00:00 | |
| LY3OO-11 | 2026-08-30 12:09:56 | 54.97192 | 24.26773 | 85° | 47km/h | 12598m | 5.4m/s | -49.9°C | 4.1% | 0hPa | 0V | 00:00:00 | 00:00:00 | 00:00:00 | |
| LY3OO-11 | 2026-08-30 12:09:36 | 54.97205 | 24.26318 | 92° | 60km/h | 12498m | 4.7m/s | -50.7°C | 4.9% | 0hPa | 0V | 00:00:00 | 00:00:00 | 00:00:00 | |
| LY3OO-11 | 2026-08-30 12:09:15 | 54.97196 | 24.25787 | 88° | 53km/h | 12403m | 3.6m/s | -51.0°C | 5.4% | 0hPa | 0V | 00:00:00 | 00:00:00 | 00:00:00 | |
| LY3OO-11 | 2026-08-30 12:08:54 | 54.97165 | 24.25262 | 81° | 58km/h | 12307m | 5.6m/s | -52.6°C | 6.7% | 0hPa | 0V | 00:00:00 | 00:00:00 | 00:00:00 | |
| LY3OO-11 | 2026-08-30 12:08:33 | 54.97078 | 24.24726 | 75° | 57km/h | 12202m | 4.2m/s | -53.7°C | 8.9% | 0hPa | 0V | 00:00:00 | 00:00:00 | 00:00:00 | |
| LY3OO-11 | 2026-08-30 12:08:13 | 54.96989 | 24.24312 | 86° | 44km/h | 12099m | 5.0m/s | -53.7°C | 11.7% | 0hPa | 0V | 00:00:00 | 00:00:00 | 00:00:00 | |
| LY3OO-11 | 2026-08-30 12:07:53 | 54.96958 | 24.23919 | 97° | 47km/h | 11997m | 6.7m/s | -54.9°C | 19.0% | 0hPa | 0V | 00:00:00 | 00:00:00 | 00:00:00 | |
| LY3OO-11 | 2026-08-30 12:07:31 | 54.96951 | 24.23328 | 80° | 71km/h | 11888m | 4.6m/s | -55.9°C | 28.5% | 0hPa | 0V | 00:00:00 | 00:00:00 | 00:00:00 | |
| LY3OO-11 | 2026-08-30 12:07:11 | 54.96877 | 24.22787 | 76° | 62km/h | 11778m | 5.4m/s | -56.8°C | 39.0% | 0hPa | 0V | 00:00:00 | 00:00:00 | 00:00:00 | |
| LY3OO-11 | 2026-08-30 12:06:50 | 54.96815 | 24.22350 | 78° | 46km/h | 11670m | 6.0m/s | -58.2°C | 52.2% | 0hPa | 0V | 00:00:00 | 00:00:00 | 00:00:00 | |
| LY3OO-11 | 2026-08-30 12:06:30 | 54.96747 | 24.21916 | 72° | 49km/h | 11562m | 5.8m/s | -58.5°C | 56.1% | 0hPa | 0V | 00:00:00 | 00:00:00 | 00:00:00 | |
| LY3OO-11 | 2026-08-30 12:06:07 | 54.96665 | 24.21431 | 74° | 60km/h | 11445m | 4.1m/s | -57.5°C | 49.5% | 0hPa | 0V | 00:00:00 | 00:00:00 | 00:00:00 | |
| LY3OO-11 | 2026-08-30 12:05:47 | 54.96590 | 24.20934 | 76° | 53km/h | 11329m | 5.3m/s | -56.5°C | 43.4% | 0hPa | 0V | 00:00:00 | 00:00:00 | 00:00:00 | |
| LY3OO-11 | 2026-08-30 12:05:26 | 54.96491 | 24.20468 | 67° | 55km/h | 11223m | 5.3m/s | -55.6°C | 40.6% | 0hPa | 0V | 00:00:00 | 00:00:00 | 00:00:00 | |
| LY3OO-11 | 2026-08-30 12:05:06 | 54.96394 | 24.20014 | 70° | 51km/h | 11116m | 5.9m/s | -54.8°C | 40.2% | 0hPa | 0V | 00:00:00 | 00:00:00 | 00:00:00 | |
| LY3OO-11 | 2026-08-30 12:04:44 | 54.96278 | 24.19493 | 67° | 64km/h | 11005m | 3.2m/s | -54.0°C | 39.1% | 0hPa | 0V | 00:00:00 | 00:00:00 | 00:00:00 | |
| LY3OO-11 | 2026-08-30 12:04:24 | 54.96144 | 24.18999 | 65° | 62km/h | 10908m | 4.5m/s | -53.6°C | 47.8% | 0hPa | 0V | 00:00:00 | 00:00:00 | 00:00:00 | |
| LY3OO-11 | 2026-08-30 12:04:03 | 54.96000 | 24.18469 | 58° | 64km/h | 10807m | 3.9m/s | -53.7°C | 61.0% | 0hPa | 0V | 00:00:00 | 00:00:00 | 00:00:00 | |
| LY3OO-11 | 2026-08-30 12:03:43 | 54.95851 | 24.18016 | 62° | 62km/h | 10702m | 5.7m/s | -52.8°C | 59.3% | 0hPa | 0V | 00:00:00 | 00:00:00 | 00:00:00 | |
| LY3OO-11 | 2026-08-30 12:03:22 | 54.95698 | 24.17555 | 62° | 66km/h | 10588m | 4.1m/s | -51.9°C | 65.3% | 0hPa | 0V | 00:00:00 | 00:00:00 | 00:00:00 | |
| LY3OO-11 | 2026-08-30 12:03:01 | 54.95559 | 24.17067 | 63° | 57km/h | 10488m | 5.0m/s | -50.9°C | 70.0% | 0hPa | 0V | 00:00:00 | 00:00:00 | 00:00:00 | |
| LY3OO-11 | 2026-08-30 12:02:41 | 54.95420 | 24.16613 | 62° | 58km/h | 10394m | 4.4m/s | -50.0°C | 67.3% | 0hPa | 0V | 00:00:00 | 00:00:00 | 00:00:00 | |
| LY3OO-11 | 2026-08-30 12:02:20 | 54.95265 | 24.16158 | 59° | 58km/h | 10292m | 5.1m/s | -49.0°C | 69.6% | 0hPa | 0V | 00:00:00 | 00:00:00 | 00:00:00 | |
| LY3OO-11 | 2026-08-30 12:02:00 | 54.95124 | 24.15677 | 64° | 57km/h | 10175m | 5.0m/s | -47.9°C | 67.1% | 0hPa | 0V | 00:00:00 | 00:00:00 | 00:00:00 | |
| LY3OO-11 | 2026-08-30 12:01:39 | 54.94984 | 24.15190 | 68° | 58km/h | 10063m | 3.8m/s | -47.0°C | 73.4% | 0hPa | 0V | 00:00:00 | 00:00:00 | 00:00:00 | |
| LY3OO-11 | 2026-08-30 12:01:18 | 54.94867 | 24.14728 | 68° | 55km/h | 9974m | 4.5m/s | -46.2°C | 75.4% | 0hPa | 0V | 00:00:00 | 00:00:00 | 00:00:00 | |
| LY3OO-11 | 2026-08-30 12:00:57 | 54.94751 | 24.14253 | 73° | 58km/h | 9883m | 4.0m/s | -45.4°C | 77.2% | 0hPa | 0V | 00:00:00 | 00:00:00 | 00:00:00 | |
| LY3OO-11 | 2026-08-30 12:00:37 | 54.94642 | 24.13795 | 68° | 57km/h | 9796m | 4.6m/s | -44.6°C | 80.4% | 0hPa | 0V | 00:00:00 | 00:00:00 | 00:00:00 | |
| LY3OO-11 | 2026-08-30 12:00:17 | 54.94531 | 24.13307 | 71° | 57km/h | 9709m | 4.0m/s | -43.9°C | 80.0% | 0hPa | 0V | 00:00:00 | 00:00:00 | 00:00:00 | |
| LY3OO-11 | 2026-08-30 11:59:56 | 54.94425 | 24.12837 | 73° | 55km/h | 9619m | 4.6m/s | -43.1°C | 77.6% | 0hPa | 0V | 00:00:00 | 00:00:00 | 00:00:00 | |
| LY3OO-11 | 2026-08-30 11:59:36 | 54.94338 | 24.12381 | 74° | 55km/h | 9520m | 7.4m/s | -42.2°C | 75.6% | 0hPa | 0V | 00:00:00 | 00:00:00 | 00:00:00 | |
| LY3OO-11 | 2026-08-30 11:59:15 | 54.94244 | 24.11885 | 77° | 58km/h | 9390m | 5.1m/s | -41.1°C | 76.0% | 0hPa | 0V | 00:00:00 | 00:00:00 | 00:00:00 | |
| LY3OO-11 | 2026-08-30 11:58:54 | 54.94163 | 24.11386 | 78° | 49km/h | 9296m | 4.8m/s | -40.3°C | 75.3% | 0hPa | 0V | 00:00:00 | 00:00:00 | 00:00:00 | |
| LY3OO-11 | 2026-08-30 11:58:34 | 54.94075 | 24.10886 | 73° | 68km/h | 9186m | 4.3m/s | -39.4°C | 74.7% | 0hPa | 0V | 00:00:00 | 00:00:00 | 00:00:00 | |
| LY3OO-11 | 2026-08-30 11:58:13 | 54.93994 | 24.10331 | 89° | 62km/h | 9078m | 7.1m/s | -38.5°C | 74.8% | 0hPa | 0V | 00:00:00 | 00:00:00 | 00:00:00 | |
| LY3OO-11 | 2026-08-30 11:57:52 | 54.93927 | 24.09813 | 79° | 57km/h | 8967m | 6.2m/s | -37.5°C | 75.3% | 0hPa | 0V | 00:00:00 | 00:00:00 | 00:00:00 | |
| LY3OO-11 | 2026-08-30 11:57:32 | 54.93867 | 24.09323 | 75° | 60km/h | 8851m | 4.0m/s | -36.5°C | 75.3% | 0hPa | 0V | 00:00:00 | 00:00:00 | 00:00:00 | |
| LY3OO-11 | 2026-08-30 11:57:11 | 54.93795 | 24.08832 | 78° | 53km/h | 8738m | 6.3m/s | -35.6°C | 74.1% | 0hPa | 0V | 00:00:00 | 00:00:00 | 00:00:00 | |
| LY3OO-11 | 2026-08-30 11:56:51 | 54.93738 | 24.08347 | 80° | 71km/h | 8633m | 6.4m/s | -34.7°C | 75.6% | 0hPa | 0V | 00:00:00 | 00:00:00 | 00:00:00 | |
| LY3OO-11 | 2026-08-30 11:56:30 | 54.93652 | 24.07800 | 75° | 58km/h | 8517m | 3.5m/s | -33.8°C | 75.8% | 0hPa | 0V | 00:00:00 | 00:00:00 | 00:00:00 | |
| LY3OO-11 | 2026-08-30 11:56:11 | 54.93558 | 24.07318 | 65° | 60km/h | 8427m | 10.3m/s | -33.3°C | 71.6% | 0hPa | 0V | 00:00:00 | 00:00:00 | 00:00:00 | |
| LY3OO-11 | 2026-08-30 11:55:49 | 54.93445 | 24.06812 | 69° | 64km/h | 8302m | 6.1m/s | -32.3°C | 73.4% | 0hPa | 0V | 00:00:00 | 00:00:00 | 00:00:00 | |
| LY3OO-11 | 2026-08-30 11:55:29 | 54.93321 | 24.06312 | 67° | 71km/h | 8207m | 3.2m/s | -31.6°C | 68.5% | 0hPa | 0V | 00:00:00 | 00:00:00 | 00:00:00 | |
| LY3OO-11 | 2026-08-30 11:55:08 | 54.93195 | 24.05810 | 78° | 55km/h | 8097m | 5.4m/s | -30.9°C | 54.7% | 0hPa | 0V | 00:00:00 | 00:00:00 | 00:00:00 | |
| LY3OO-11 | 2026-08-30 11:54:48 | 54.93129 | 24.05385 | 63° | 49km/h | 7986m | 7.8m/s | -29.8°C | 43.9% | 0hPa | 0V | 00:00:00 | 00:00:00 | 00:00:00 | |
| LY3OO-11 | 2026-08-30 11:54:27 | 54.93036 | 24.04938 | 61° | 47km/h | 7874m | 5.2m/s | -28.7°C | 38.7% | 0hPa | 0V | 00:00:00 | 00:00:00 | 00:00:00 | |
| LY3OO-11 | 2026-08-30 11:54:06 | 54.92927 | 24.04492 | 65° | 55km/h | 7751m | 6.2m/s | -27.6°C | 31.1% | 0hPa | 0V | 00:00:00 | 00:00:00 | 00:00:00 | |
| LY3OO-11 | 2026-08-30 11:53:45 | 54.92838 | 24.04057 | 72° | 49km/h | 7652m | 4.0m/s | -26.7°C | 37.6% | 0hPa | 0V | 00:00:00 | 00:00:00 | 00:00:00 | |
| LY3OO-11 | 2026-08-30 11:53:25 | 54.92734 | 24.03703 | 75° | 47km/h | 7544m | 8.3m/s | -26.0°C | 21.8% | 0hPa | 0V | 00:00:00 | 00:00:00 | 00:00:00 | |
| LY3OO-11 | 2026-08-30 11:53:04 | 54.92656 | 24.03333 | 78° | 42km/h | 7411m | 5.5m/s | -25.1°C | 61.6% | 0hPa | 0V | 00:00:00 | 00:00:00 | 00:00:00 | |
| LY3OO-11 | 2026-08-30 11:52:43 | 54.92616 | 24.02951 | 83° | 44km/h | 7294m | 5.1m/s | -24.2°C | 80.4% | 0hPa | 0V | 00:00:00 | 00:00:00 | 00:00:00 | |
| LY3OO-11 | 2026-08-30 11:52:22 | 54.92591 | 24.02562 | 84° | 46km/h | 7188m | 6.0m/s | -23.4°C | 80.5% | 0hPa | 0V | 00:00:00 | 00:00:00 | 00:00:00 | |
| LY3OO-11 | 2026-08-30 11:52:01 | 54.92556 | 24.02086 | 91° | 42km/h | 7086m | 4.0m/s | -22.4°C | 73.3% | 0hPa | 0V | 00:00:00 | 00:00:00 | 00:00:00 | |
| LY3OO-11 | 2026-08-30 11:51:41 | 54.92522 | 24.01657 | 84° | 53km/h | 6982m | 6.3m/s | -21.4°C | 69.1% | 0hPa | 0V | 00:00:00 | 00:00:00 | 00:00:00 | |
| LY3OO-11 | 2026-08-30 11:51:22 | 54.92480 | 24.01218 | 77° | 47km/h | 6873m | 5.1m/s | -20.5°C | 70.2% | 0hPa | 0V | 00:00:00 | 00:00:00 | 00:00:00 | |
| LY3OO-11 | 2026-08-30 11:51:00 | 54.92412 | 24.00769 | 87° | 40km/h | 6773m | 5.7m/s | -19.7°C | 66.5% | 0hPa | 0V | 00:00:00 | 00:00:00 | 00:00:00 | |
| LY3OO-11 | 2026-08-30 11:50:39 | 54.92358 | 24.00386 | 67° | 46km/h | 6668m | 4.9m/s | -18.9°C | 69.1% | 0hPa | 0V | 00:00:00 | 00:00:00 | 00:00:00 | |
| LY3OO-11 | 2026-08-30 11:50:19 | 54.92277 | 24.00010 | 72° | 46km/h | 6592m | 3.4m/s | -18.5°C | 55.6% | 0hPa | 0V | 00:00:00 | 00:00:00 | 00:00:00 | |
| LY3OO-11 | 2026-08-30 11:50:00 | 54.92211 | 23.99603 | 73° | 47km/h | 6498m | 5.2m/s | -17.9°C | 25.7% | 0hPa | 0V | 00:00:00 | 00:00:00 | 00:00:00 | |
| LY3OO-11 | 2026-08-30 11:49:38 | 54.92151 | 23.99177 | 76° | 49km/h | 6393m | 5.1m/s | -17.2°C | 31.9% | 0hPa | 0V | 00:00:00 | 00:00:00 | 00:00:00 | |
| LY3OO-11 | 2026-08-30 11:49:19 | 54.92070 | 23.98745 | 62° | 51km/h | 6300m | 7.2m/s | -16.4°C | 9.5% | 0hPa | 0V | 00:00:00 | 00:00:00 | 00:00:00 | |
| LY3OO-11 | 2026-08-30 11:48:57 | 54.91975 | 23.98300 | 73° | 60km/h | 6205m | 5.0m/s | -15.7°C | 8.5% | 0hPa | 0V | 00:00:00 | 00:00:00 | 00:00:00 | |
| LY3OO-11 | 2026-08-30 11:48:36 | 54.91871 | 23.97904 | 62° | 44km/h | 6092m | 4.3m/s | -15.0°C | 6.5% | 0hPa | 0V | 00:00:00 | 00:00:00 | 00:00:00 | |
| LY3OO-11 | 2026-08-30 11:48:16 | 54.91758 | 23.97517 | 67° | 44km/h | 5997m | 3.6m/s | -14.8°C | 7.4% | 0hPa | 0V | 00:00:00 | 00:00:00 | 00:00:00 | |
| LY3OO-11 | 2026-08-30 11:47:55 | 54.91678 | 23.97193 | 91° | 35km/h | 5914m | 6.3m/s | -15.3°C | 22.0% | 0hPa | 0V | 00:00:00 | 00:00:00 | 00:00:00 | |
| LY3OO-11 | 2026-08-30 11:47:34 | 54.91645 | 23.96782 | 76° | 37km/h | 5819m | 5.5m/s | -14.9°C | 19.1% | 0hPa | 0V | 00:00:00 | 00:00:00 | 00:00:00 | |
| LY3OO-11 | 2026-08-30 11:47:14 | 54.91614 | 23.96450 | 74° | 37km/h | 5724m | 4.4m/s | -15.2°C | 23.2% | 0hPa | 0V | 00:00:00 | 00:00:00 | 00:00:00 | |
| LY3OO-11 | 2026-08-30 11:46:53 | 54.91572 | 23.96023 | 81° | 51km/h | 5619m | 4.8m/s | -14.7°C | 51.1% | 0hPa | 0V | 00:00:00 | 00:00:00 | 00:00:00 | |
| LY3OO-11 | 2026-08-30 11:46:32 | 54.91550 | 23.95579 | 90° | 51km/h | 5520m | 2.7m/s | -13.9°C | 46.0% | 0hPa | 0V | 00:00:00 | 00:00:00 | 00:00:00 | |
| LY3OO-11 | 2026-08-30 11:46:11 | 54.91572 | 23.95177 | 83° | 49km/h | 5428m | 6.6m/s | -13.1°C | 43.7% | 0hPa | 0V | 00:00:00 | 00:00:00 | 00:00:00 | |
| LY3OO-11 | 2026-08-30 11:45:50 | 54.91564 | 23.94804 | 75° | 44km/h | 5327m | 5.1m/s | -12.3°C | 41.6% | 0hPa | 0V | 00:00:00 | 00:00:00 | 00:00:00 | |
| LY3OO-11 | 2026-08-30 11:45:29 | 54.91544 | 23.94385 | 79° | 40km/h | 5220m | 4.9m/s | -11.8°C | 40.8% | 0hPa | 0V | 00:00:00 | 00:00:00 | 00:00:00 | |
| LY3OO-11 | 2026-08-30 11:45:10 | 54.91504 | 23.94038 | 81° | 38km/h | 5120m | 4.8m/s | -10.8°C | 37.7% | 0hPa | 0V | 00:00:00 | 00:00:00 | 00:00:00 | |
| LY3OO-11 | 2026-08-30 11:44:48 | 54.91462 | 23.93656 | 87° | 40km/h | 5028m | 6.7m/s | -10.2°C | 28.5% | 0hPa | 0V | 00:00:00 | 00:00:00 | 00:00:00 | |
| LY3OO-11 | 2026-08-30 11:44:28 | 54.91417 | 23.93347 | 68° | 37km/h | 4926m | 4.9m/s | -9.3°C | 28.3% | 0hPa | 0V | 00:00:00 | 00:00:00 | 00:00:00 | |
| LY3OO-11 | 2026-08-30 11:44:07 | 54.91388 | 23.93013 | 67° | 38km/h | 4823m | 7.7m/s | -8.5°C | 26.5% | 0hPa | 0V | 00:00:00 | 00:00:00 | 00:00:00 | |
| LY3OO-11 | 2026-08-30 11:43:25 | 54.91285 | 23.92345 | 73° | 44km/h | 4605m | 5.8m/s | -7.5°C | 24.3% | 0hPa | 0V | 00:00:00 | 00:00:00 | 00:00:00 | |
| LY3OO-11 | 2026-08-30 11:43:04 | 54.91195 | 23.91964 | 69° | 42km/h | 4476m | 7.2m/s | -6.8°C | 34.7% | 0hPa | 0V | 00:00:00 | 00:00:00 | 00:00:00 | |
| LY3OO-11 | 2026-08-30 11:42:43 | 54.91098 | 23.91604 | 66° | 44km/h | 4340m | 6.7m/s | -5.7°C | 34.0% | 0hPa | 0V | 00:00:00 | 00:00:00 | 00:00:00 | |
| LY3OO-11 | 2026-08-30 11:42:23 | 54.91023 | 23.91294 | 83° | 35km/h | 4224m | 5.3m/s | -4.8°C | 32.2% | 0hPa | 0V | 00:00:00 | 00:00:00 | 00:00:00 | |
| LY3OO-11 | 2026-08-30 11:42:03 | 54.90949 | 23.90955 | 72° | 35km/h | 4102m | 6.0m/s | -3.8°C | 32.7% | 0hPa | 0V | 00:00:00 | 00:00:00 | 00:00:00 | |
| LY3OO-11 | 2026-08-30 11:41:41 | 54.90865 | 23.90639 | 63° | 38km/h | 3979m | 6.7m/s | -2.7°C | 31.0% | 0hPa | 0V | 00:00:00 | 00:00:00 | 00:00:00 | |
| LY3OO-11 | 2026-08-30 11:41:20 | 54.90778 | 23.90316 | 70° | 40km/h | 3859m | 7.4m/s | -2.5°C | 40.2% | 0hPa | 0V | 00:00:00 | 00:00:00 | 00:00:00 | |
| LY3OO-11 | 2026-08-30 11:40:59 | 54.90727 | 23.89969 | 91° | 40km/h | 3745m | 5.4m/s | -2.4°C | 56.8% | 0hPa | 0V | 00:00:00 | 00:00:00 | 00:00:00 | |
| LY3OO-11 | 2026-08-30 11:40:38 | 54.90650 | 23.89656 | 41° | 29km/h | 3630m | 6.0m/s | -3.9°C | 71.9% | 0hPa | 0V | 00:00:00 | 00:00:00 | 00:00:00 | |
| LY3OO-11 | 2026-08-30 11:40:19 | 54.90538 | 23.89501 | 30° | 26km/h | 3516m | 6.1m/s | -3.4°C | 81.5% | 0hPa | 0V | 00:00:00 | 00:00:00 | 00:00:00 | |
| LY3OO-11 | 2026-08-30 11:39:57 | 54.90451 | 23.89370 | 52° | 26km/h | 3389m | 7.1m/s | -2.4°C | 81.6% | 0hPa | 0V | 00:00:00 | 00:00:00 | 00:00:00 | |
| LY3OO-11 | 2026-08-30 11:39:36 | 54.90371 | 23.89237 | 25° | 18km/h | 3262m | 7.4m/s | -1.3°C | 78.5% | 0hPa | 0V | 00:00:00 | 00:00:00 | 00:00:00 | |
| LY3OO-11 | 2026-08-30 11:39:16 | 54.90271 | 23.89120 | 49° | 22km/h | 3140m | 5.1m/s | -0.2°C | 74.4% | 0hPa | 0V | 00:00:00 | 00:00:00 | 00:00:00 | |
| LY3OO-11 | 2026-08-30 11:38:56 | 54.90186 | 23.88997 | 61° | 18km/h | 3024m | 6.6m/s | 0.6°C | 69.3% | 0hPa | 0V | 00:00:00 | 00:00:00 | 00:00:00 | |
| LY3OO-11 | 2026-08-30 11:38:35 | 54.90130 | 23.88825 | 64° | 22km/h | 2895m | 7.4m/s | 1.7°C | 65.1% | 0hPa | 0V | 00:00:00 | 00:00:00 | 00:00:00 | |
| LY3OO-11 | 2026-08-30 11:38:14 | 54.90089 | 23.88639 | 81° | 22km/h | 2757m | 7.1m/s | 2.0°C | 82.5% | 0hPa | 0V | 00:00:00 | 00:00:00 | 00:00:00 | |
| LY3OO-11 | 2026-08-30 11:37:54 | 54.90053 | 23.88431 | 77° | 22km/h | 2622m | 6.6m/s | 3.1°C | 0% | 0hPa | 0V | 00:00:00 | 00:00:00 | 00:00:00 | |
| LY3OO-11 | 2026-08-30 11:37:34 | 54.90006 | 23.88230 | 75° | 29km/h | 2489m | 7.3m/s | 0°C | 0% | 0hPa | 0V | 00:00:00 | 00:00:00 | 00:00:00 | |
| LY3OO-11 | 2026-08-30 11:37:13 | 54.89964 | 23.87996 | 61° | 26km/h | 2349m | 7.8m/s | 0°C | 0% | 0hPa | 0V | 00:00:00 | 00:00:00 | 00:00:00 | |
| LY3OO-11 | 2026-08-30 11:33:08 | 54.89158 | 23.85238 | 56° | 35km/h | 830m | 5.1m/s | 0°C | 0% | 0hPa | 0V | 00:00:00 | 00:00:00 | 00:00:00 | |
| LY3OO-11 | 2026-08-30 11:32:46 | 54.89039 | 23.85001 | 55° | 35km/h | 721m | 4.8m/s | 0°C | 0% | 0hPa | 0V | 00:00:00 | 00:00:00 | 00:00:00 |